sensor_id;sensor_type;location;lat;lon;timestamp;pressure;altitude;pressure_sealevel;temperature
27826;BMP280;15077;49.704;9.908;2024-02-23T00:01:57;95813.78;;;13.43
27826;BMP280;15077;49.704;9.908;2024-02-23T00:04:22;95828.34;;;13.41
27826;BMP280;15077;49.704;9.908;2024-02-23T00:06:48;95857.44;;;13.38
27826;BMP280;15077;49.704;9.908;2024-02-23T00:09:14;95856.06;;;13.34
27826;BMP280;15077;49.704;9.908;2024-02-23T00:11:40;95877.47;;;13.32
27826;BMP280;15077;49.704;9.908;2024-02-23T00:14:10;95883.75;;;13.28
27826;BMP280;15077;49.704;9.908;2024-02-23T00:16:40;95886.44;;;13.26
27826;BMP280;15077;49.704;9.908;2024-02-23T00:19:09;95920.44;;;13.25
27826;BMP280;15077;49.704;9.908;2024-02-23T00:21:38;95923.25;;;13.22
27826;BMP280;15077;49.704;9.908;2024-02-23T00:24:04;95914.94;;;13.20
27826;BMP280;15077;49.704;9.908;2024-02-23T00:26:30;95916.94;;;13.17
27826;BMP280;15077;49.704;9.908;2024-02-23T00:28:56;95925.06;;;13.11
27826;BMP280;15077;49.704;9.908;2024-02-23T00:31:22;95919.34;;;13.09
27826;BMP280;15077;49.704;9.908;2024-02-23T00:33:48;95928.81;;;13.07
27826;BMP280;15077;49.704;9.908;2024-02-23T00:36:13;95939.22;;;13.04
27826;BMP280;15077;49.704;9.908;2024-02-23T00:38:39;95946.19;;;13.02
27826;BMP280;15077;49.704;9.908;2024-02-23T00:41:05;95949.00;;;12.99
27826;BMP280;15077;49.704;9.908;2024-02-23T00:43:41;95944.16;;;12.96
27826;BMP280;15077;49.704;9.908;2024-02-23T00:46:08;95948.56;;;12.94
27826;BMP280;15077;49.704;9.908;2024-02-23T00:48:34;95948.69;;;12.93
27826;BMP280;15077;49.704;9.908;2024-02-23T00:51:01;95924.47;;;12.89
27826;BMP280;15077;49.704;9.908;2024-02-23T00:53:28;95936.22;;;12.90
27826;BMP280;15077;49.704;9.908;2024-02-23T00:55:54;95952.53;;;12.87
27826;BMP280;15077;49.704;9.908;2024-02-23T00:58:20;95957.88;;;12.84
27826;BMP280;15077;49.704;9.908;2024-02-23T01:00:45;95959.03;;;12.80
27826;BMP280;15077;49.704;9.908;2024-02-23T01:03:11;95975.19;;;12.79
27826;BMP280;15077;49.704;9.908;2024-02-23T01:05:36;95967.16;;;12.74
27826;BMP280;15077;49.704;9.908;2024-02-23T01:08:04;95972.50;;;12.71
27826;BMP280;15077;49.704;9.908;2024-02-23T01:10:29;95989.84;;;12.66
27826;BMP280;15077;49.704;9.908;2024-02-23T01:12:55;95989.28;;;12.63
27826;BMP280;15077;49.704;9.908;2024-02-23T01:15:20;95981.91;;;12.60
27826;BMP280;15077;49.704;9.908;2024-02-23T01:17:46;95997.28;;;12.58
27826;BMP280;15077;49.704;9.908;2024-02-23T01:20:12;95982.41;;;12.54
27826;BMP280;15077;49.704;9.908;2024-02-23T01:22:38;95987.59;;;12.53
27826;BMP280;15077;49.704;9.908;2024-02-23T01:25:04;95981.19;;;12.49
27826;BMP280;15077;49.704;9.908;2024-02-23T01:27:30;95983.03;;;12.47
27826;BMP280;15077;49.704;9.908;2024-02-23T01:29:56;95987.56;;;12.43
27826;BMP280;15077;49.704;9.908;2024-02-23T01:32:22;95989.25;;;12.43
27826;BMP280;15077;49.704;9.908;2024-02-23T01:34:47;95990.22;;;12.42
27826;BMP280;15077;49.704;9.908;2024-02-23T01:37:13;95991.13;;;12.41
27826;BMP280;15077;49.704;9.908;2024-02-23T01:39:39;95995.28;;;12.42
27826;BMP280;15077;49.704;9.908;2024-02-23T01:42:04;95994.59;;;12.40
27826;BMP280;15077;49.704;9.908;2024-02-23T01:44:30;95989.63;;;12.38
27826;BMP280;15077;49.704;9.908;2024-02-23T01:46:55;95993.91;;;12.38
27826;BMP280;15077;49.704;9.908;2024-02-23T01:49:22;95989.75;;;12.37
27826;BMP280;15077;49.704;9.908;2024-02-23T01:51:49;95992.28;;;12.37
27826;BMP280;15077;49.704;9.908;2024-02-23T01:54:15;96005.13;;;12.35
27826;BMP280;15077;49.704;9.908;2024-02-23T01:56:41;96011.81;;;12.36
27826;BMP280;15077;49.704;9.908;2024-02-23T01:59:09;96007.78;;;12.34
27826;BMP280;15077;49.704;9.908;2024-02-23T02:01:35;96027.78;;;12.27
27826;BMP280;15077;49.704;9.908;2024-02-23T02:04:01;96041.88;;;12.20
27826;BMP280;15077;49.704;9.908;2024-02-23T02:06:27;96030.50;;;12.15
27826;BMP280;15077;49.704;9.908;2024-02-23T02:08:53;96041.03;;;12.11
27826;BMP280;15077;49.704;9.908;2024-02-23T02:11:19;96036.31;;;12.06
27826;BMP280;15077;49.704;9.908;2024-02-23T02:13:45;96048.41;;;12.03
27826;BMP280;15077;49.704;9.908;2024-02-23T02:16:11;96048.66;;;12.00
27826;BMP280;15077;49.704;9.908;2024-02-23T02:18:37;96053.16;;;11.96
27826;BMP280;15077;49.704;9.908;2024-02-23T02:21:03;96063.56;;;11.93
27826;BMP280;15077;49.704;9.908;2024-02-23T02:23:28;96067.25;;;11.89
27826;BMP280;15077;49.704;9.908;2024-02-23T02:25:56;96064.03;;;11.87
27826;BMP280;15077;49.704;9.908;2024-02-23T02:28:23;96063.44;;;11.84
27826;BMP280;15077;49.704;9.908;2024-02-23T02:30:50;96048.44;;;11.81
27826;BMP280;15077;49.704;9.908;2024-02-23T02:33:16;96056.28;;;11.78
27826;BMP280;15077;49.704;9.908;2024-02-23T02:35:42;96054.81;;;11.75
27826;BMP280;15077;49.704;9.908;2024-02-23T02:38:07;96053.19;;;11.74
27826;BMP280;15077;49.704;9.908;2024-02-23T02:40:33;96049.28;;;11.70
27826;BMP280;15077;49.704;9.908;2024-02-23T02:42:59;96064.72;;;11.67
27826;BMP280;15077;49.704;9.908;2024-02-23T02:45:24;96069.13;;;11.65
27826;BMP280;15077;49.704;9.908;2024-02-23T02:47:50;96065.91;;;11.63
27826;BMP280;15077;49.704;9.908;2024-02-23T02:50:15;96072.00;;;11.61
27826;BMP280;15077;49.704;9.908;2024-02-23T02:52:42;96080.53;;;11.60
27826;BMP280;15077;49.704;9.908;2024-02-23T02:55:07;96088.16;;;11.60
27826;BMP280;15077;49.704;9.908;2024-02-23T02:57:33;96097.50;;;11.60
27826;BMP280;15077;49.704;9.908;2024-02-23T03:00:04;96098.41;;;11.59
27826;BMP280;15077;49.704;9.908;2024-02-23T03:02:34;96097.59;;;11.58
27826;BMP280;15077;49.704;9.908;2024-02-23T03:05:00;96093.34;;;11.59
27826;BMP280;15077;49.704;9.908;2024-02-23T03:07:25;96102.69;;;11.58
27826;BMP280;15077;49.704;9.908;2024-02-23T03:09:51;96101.88;;;11.58
27826;BMP280;15077;49.704;9.908;2024-02-23T03:12:17;96092.53;;;11.58
27826;BMP280;15077;49.704;9.908;2024-02-23T03:14:43;96095.19;;;11.57
27826;BMP280;15077;49.704;9.908;2024-02-23T03:17:09;96105.34;;;11.57
27826;BMP280;15077;49.704;9.908;2024-02-23T03:19:36;96119.88;;;11.55
27826;BMP280;15077;49.704;9.908;2024-02-23T03:22:01;96156.41;;;11.52
27826;BMP280;15077;49.704;9.908;2024-02-23T03:24:27;96153.47;;;11.46
27826;BMP280;15077;49.704;9.908;2024-02-23T03:26:53;96153.91;;;11.40
27826;BMP280;15077;49.704;9.908;2024-02-23T03:29:18;96146.75;;;11.34
27826;BMP280;15077;49.704;9.908;2024-02-23T03:31:44;96170.03;;;11.28
27826;BMP280;15077;49.704;9.908;2024-02-23T03:34:10;96179.03;;;11.21
27826;BMP280;15077;49.704;9.908;2024-02-23T03:36:36;96180.38;;;11.14
27826;BMP280;15077;49.704;9.908;2024-02-23T03:39:02;96185.91;;;11.08
27826;BMP280;15077;49.704;9.908;2024-02-23T03:41:28;96180.56;;;11.00
27826;BMP280;15077;49.704;9.908;2024-02-23T03:43:53;96179.28;;;10.95
27826;BMP280;15077;49.704;9.908;2024-02-23T03:46:19;96186.16;;;10.93
27826;BMP280;15077;49.704;9.908;2024-02-23T03:48:45;96179.63;;;10.90
27826;BMP280;15077;49.704;9.908;2024-02-23T03:51:11;96184.91;;;10.87
27826;BMP280;15077;49.704;9.908;2024-02-23T03:53:36;96198.69;;;10.83
27826;BMP280;15077;49.704;9.908;2024-02-23T03:56:02;96196.38;;;10.80
27826;BMP280;15077;49.704;9.908;2024-02-23T03:58:28;96182.28;;;10.76
27826;BMP280;15077;49.704;9.908;2024-02-23T04:00:54;96179.06;;;10.74
27826;BMP280;15077;49.704;9.908;2024-02-23T04:03:20;96182.50;;;10.73
27826;BMP280;15077;49.704;9.908;2024-02-23T04:05:45;96176.75;;;10.71
27826;BMP280;15077;49.704;9.908;2024-02-23T04:08:11;96189.53;;;10.70
27826;BMP280;15077;49.704;9.908;2024-02-23T04:10:44;96187.22;;;10.67
27826;BMP280;15077;49.704;9.908;2024-02-23T04:13:10;96179.94;;;10.63
27826;BMP280;15077;49.704;9.908;2024-02-23T04:15:39;96174.28;;;10.59
27826;BMP280;15077;49.704;9.908;2024-02-23T04:18:05;96160.13;;;10.57
27826;BMP280;15077;49.704;9.908;2024-02-23T04:20:31;96172.06;;;10.55
27826;BMP280;15077;49.704;9.908;2024-02-23T04:22:57;96191.72;;;10.51
27826;BMP280;15077;49.704;9.908;2024-02-23T04:25:23;96194.38;;;10.50
27826;BMP280;15077;49.704;9.908;2024-02-23T04:27:48;96194.47;;;10.48
27826;BMP280;15077;49.704;9.908;2024-02-23T04:30:14;96201.28;;;10.48
27826;BMP280;15077;49.704;9.908;2024-02-23T04:32:45;96196.44;;;10.45
27826;BMP280;15077;49.704;9.908;2024-02-23T04:35:10;96210.00;;;10.44
27826;BMP280;15077;49.704;9.908;2024-02-23T04:37:36;96227.03;;;10.42
27826;BMP280;15077;49.704;9.908;2024-02-23T04:40:02;96224.38;;;10.43
27826;BMP280;15077;49.704;9.908;2024-02-23T04:42:27;96224.50;;;10.42
27826;BMP280;15077;49.704;9.908;2024-02-23T04:44:53;96209.31;;;10.42
27826;BMP280;15077;49.704;9.908;2024-02-23T04:47:20;96208.38;;;10.43
27826;BMP280;15077;49.704;9.908;2024-02-23T04:49:46;96226.81;;;10.45
27826;BMP280;15077;49.704;9.908;2024-02-23T04:52:12;96230.03;;;10.47
27826;BMP280;15077;49.704;9.908;2024-02-23T04:54:37;96219.91;;;10.47
27826;BMP280;15077;49.704;9.908;2024-02-23T04:57:03;96232.47;;;10.48
27826;BMP280;15077;49.704;9.908;2024-02-23T04:59:29;96229.81;;;10.50
27826;BMP280;15077;49.704;9.908;2024-02-23T05:01:57;96233.06;;;10.52
27826;BMP280;15077;49.704;9.908;2024-02-23T05:04:22;96231.25;;;10.54
27826;BMP280;15077;49.704;9.908;2024-02-23T05:06:48;96225.97;;;10.57
27826;BMP280;15077;49.704;9.908;2024-02-23T05:09:14;96219.06;;;10.59
27826;BMP280;15077;49.704;9.908;2024-02-23T05:11:39;96217.31;;;10.59
27826;BMP280;15077;49.704;9.908;2024-02-23T05:14:05;96216.53;;;10.59
27826;BMP280;15077;49.704;9.908;2024-02-23T05:16:31;96226.44;;;10.62
27826;BMP280;15077;49.704;9.908;2024-02-23T05:18:57;96226.22;;;10.64
27826;BMP280;15077;49.704;9.908;2024-02-23T05:21:23;96239.72;;;10.65
27826;BMP280;15077;49.704;9.908;2024-02-23T05:23:48;96221.78;;;10.68
27826;BMP280;15077;49.704;9.908;2024-02-23T05:26:14;96217.50;;;10.68
27826;BMP280;15077;49.704;9.908;2024-02-23T05:28:39;96210.72;;;10.69
27826;BMP280;15077;49.704;9.908;2024-02-23T05:31:05;96213.13;;;10.70
27826;BMP280;15077;49.704;9.908;2024-02-23T05:33:31;96211.31;;;10.72
27826;BMP280;15077;49.704;9.908;2024-02-23T05:35:56;96217.06;;;10.74
27826;BMP280;15077;49.704;9.908;2024-02-23T05:38:22;96226.88;;;10.79
27826;BMP280;15077;49.704;9.908;2024-02-23T05:40:47;96237.59;;;10.82
27826;BMP280;15077;49.704;9.908;2024-02-23T05:43:14;96240.66;;;10.87
27826;BMP280;15077;49.704;9.908;2024-02-23T05:45:40;96228.66;;;10.89
27826;BMP280;15077;49.704;9.908;2024-02-23T05:48:06;96235.16;;;10.93
27826;BMP280;15077;49.704;9.908;2024-02-23T05:50:32;96229.84;;;10.96
27826;BMP280;15077;49.704;9.908;2024-02-23T05:52:57;96241.38;;;11.00
27826;BMP280;15077;49.704;9.908;2024-02-23T05:55:23;96245.44;;;11.03
27826;BMP280;15077;49.704;9.908;2024-02-23T05:57:49;96235.91;;;11.06
27826;BMP280;15077;49.704;9.908;2024-02-23T06:00:17;96243.41;;;11.08
27826;BMP280;15077;49.704;9.908;2024-02-23T06:02:45;96252.69;;;11.07
27826;BMP280;15077;49.704;9.908;2024-02-23T06:05:12;96249.47;;;11.05
27826;BMP280;15077;49.704;9.908;2024-02-23T06:07:37;96250.50;;;11.03
27826;BMP280;15077;49.704;9.908;2024-02-23T06:10:03;96254.97;;;10.99
27826;BMP280;15077;49.704;9.908;2024-02-23T06:12:29;96260.06;;;10.99
27826;BMP280;15077;49.704;9.908;2024-02-23T06:14:55;96263.59;;;10.97
27826;BMP280;15077;49.704;9.908;2024-02-23T06:17:22;96267.03;;;10.96
27826;BMP280;15077;49.704;9.908;2024-02-23T06:19:48;96272.22;;;10.94
27826;BMP280;15077;49.704;9.908;2024-02-23T06:22:14;96265.56;;;10.93
27826;BMP280;15077;49.704;9.908;2024-02-23T06:24:42;96273.25;;;10.92
27826;BMP280;15077;49.704;9.908;2024-02-23T06:27:08;96270.13;;;10.88
27826;BMP280;15077;49.704;9.908;2024-02-23T06:29:34;96288.91;;;10.86
27826;BMP280;15077;49.704;9.908;2024-02-23T06:31:59;96286.69;;;10.81
27826;BMP280;15077;49.704;9.908;2024-02-23T06:34:26;96285.25;;;10.77
27826;BMP280;15077;49.704;9.908;2024-02-23T06:36:52;96288.91;;;10.73
27826;BMP280;15077;49.704;9.908;2024-02-23T06:39:18;96301.78;;;10.70
27826;BMP280;15077;49.704;9.908;2024-02-23T06:41:45;96308.00;;;10.66
27826;BMP280;15077;49.704;9.908;2024-02-23T06:44:11;96309.13;;;10.63
27826;BMP280;15077;49.704;9.908;2024-02-23T06:46:37;96297.78;;;10.56
27826;BMP280;15077;49.704;9.908;2024-02-23T06:49:03;96294.03;;;10.49
27826;BMP280;15077;49.704;9.908;2024-02-23T06:51:31;96304.59;;;10.43
27826;BMP280;15077;49.704;9.908;2024-02-23T06:53:57;96302.47;;;10.37
27826;BMP280;15077;49.704;9.908;2024-02-23T06:56:23;96301.97;;;10.32
27826;BMP280;15077;49.704;9.908;2024-02-23T06:58:48;96304.03;;;10.27
27826;BMP280;15077;49.704;9.908;2024-02-23T07:01:14;96299.16;;;10.24
27826;BMP280;15077;49.704;9.908;2024-02-23T07:03:40;96304.44;;;10.21
27826;BMP280;15077;49.704;9.908;2024-02-23T07:06:08;96300.47;;;10.17
27826;BMP280;15077;49.704;9.908;2024-02-23T07:08:35;96301.56;;;10.13
27826;BMP280;15077;49.704;9.908;2024-02-23T07:11:01;96311.91;;;10.10
27826;BMP280;15077;49.704;9.908;2024-02-23T07:13:27;96296.03;;;10.08
27826;BMP280;15077;49.704;9.908;2024-02-23T07:15:53;96302.69;;;10.09
27826;BMP280;15077;49.704;9.908;2024-02-23T07:18:18;96307.84;;;10.08
27826;BMP280;15077;49.704;9.908;2024-02-23T07:20:44;96296.94;;;10.07
27826;BMP280;15077;49.704;9.908;2024-02-23T07:23:10;96295.28;;;10.06
27826;BMP280;15077;49.704;9.908;2024-02-23T07:25:35;96307.06;;;10.07
27826;BMP280;15077;49.704;9.908;2024-02-23T07:28:01;96303.00;;;10.05
27826;BMP280;15077;49.704;9.908;2024-02-23T07:30:27;96306.56;;;10.02
27826;BMP280;15077;49.704;9.908;2024-02-23T07:32:52;96316.78;;;10.01
27826;BMP280;15077;49.704;9.908;2024-02-23T07:35:18;96312.72;;;9.98
27826;BMP280;15077;49.704;9.908;2024-02-23T07:37:43;96314.53;;;9.96
27826;BMP280;15077;49.704;9.908;2024-02-23T07:40:09;96317.09;;;9.96
27826;BMP280;15077;49.704;9.908;2024-02-23T07:42:35;96320.41;;;9.97
27826;BMP280;15077;49.704;9.908;2024-02-23T07:45:03;96317.09;;;9.96
27826;BMP280;15077;49.704;9.908;2024-02-23T07:47:30;96326.28;;;9.97
27826;BMP280;15077;49.704;9.908;2024-02-23T07:49:56;96319.41;;;9.99
27826;BMP280;15077;49.704;9.908;2024-02-23T07:52:22;96316.69;;;10.02
27826;BMP280;15077;49.704;9.908;2024-02-23T07:54:53;96309.78;;;10.04
27826;BMP280;15077;49.704;9.908;2024-02-23T07:57:19;96323.13;;;10.06
27826;BMP280;15077;49.704;9.908;2024-02-23T07:59:46;96317.16;;;10.07
27826;BMP280;15077;49.704;9.908;2024-02-23T08:02:12;96314.44;;;10.10
27826;BMP280;15077;49.704;9.908;2024-02-23T08:04:37;96318.50;;;10.13
27826;BMP280;15077;49.704;9.908;2024-02-23T08:07:04;96311.59;;;10.15
27826;BMP280;15077;49.704;9.908;2024-02-23T08:09:30;96312.44;;;10.15
27826;BMP280;15077;49.704;9.908;2024-02-23T08:11:55;96306.44;;;10.16
27826;BMP280;15077;49.704;9.908;2024-02-23T08:14:21;96308.06;;;10.17
27826;BMP280;15077;49.704;9.908;2024-02-23T08:16:46;96306.13;;;10.20
27826;BMP280;15077;49.704;9.908;2024-02-23T08:19:12;96323.66;;;10.23
27826;BMP280;15077;49.704;9.908;2024-02-23T08:21:38;96317.69;;;10.24
27826;BMP280;15077;49.704;9.908;2024-02-23T08:24:04;96310.88;;;10.25
27826;BMP280;15077;49.704;9.908;2024-02-23T08:26:30;96325.88;;;10.28
27826;BMP280;15077;49.704;9.908;2024-02-23T08:28:56;96322.44;;;10.29
27826;BMP280;15077;49.704;9.908;2024-02-23T08:31:21;96320.59;;;10.31
27826;BMP280;15077;49.704;9.908;2024-02-23T08:33:47;96318.78;;;10.33
27826;BMP280;15077;49.704;9.908;2024-02-23T08:36:13;96315.13;;;10.37
27826;BMP280;15077;49.704;9.908;2024-02-23T08:38:38;96332.63;;;10.40
27826;BMP280;15077;49.704;9.908;2024-02-23T08:41:04;96328.19;;;10.43
27826;BMP280;15077;49.704;9.908;2024-02-23T08:43:29;96328.00;;;10.46
27826;BMP280;15077;49.704;9.908;2024-02-23T08:45:55;96338.03;;;10.48
27826;BMP280;15077;49.704;9.908;2024-02-23T08:48:21;96343.88;;;10.48
27826;BMP280;15077;49.704;9.908;2024-02-23T08:50:46;96331.22;;;10.48
27826;BMP280;15077;49.704;9.908;2024-02-23T08:53:12;96331.91;;;10.50
27826;BMP280;15077;49.704;9.908;2024-02-23T08:55:38;96328.38;;;10.53
27826;BMP280;15077;49.704;9.908;2024-02-23T08:58:03;96325.84;;;10.53
27826;BMP280;15077;49.704;9.908;2024-02-23T09:00:31;96339.19;;;10.55
27826;BMP280;15077;49.704;9.908;2024-02-23T09:02:57;96353.59;;;10.54
27826;BMP280;15077;49.704;9.908;2024-02-23T09:05:22;96365.38;;;10.55
27826;BMP280;15077;49.704;9.908;2024-02-23T09:07:48;96353.59;;;10.54
27826;BMP280;15077;49.704;9.908;2024-02-23T09:10:14;96352.81;;;10.54
27826;BMP280;15077;49.704;9.908;2024-02-23T09:12:40;96359.47;;;10.55
27826;BMP280;15077;49.704;9.908;2024-02-23T09:15:05;96357.88;;;10.54
27826;BMP280;15077;49.704;9.908;2024-02-23T09:17:31;96348.63;;;10.53
27826;BMP280;15077;49.704;9.908;2024-02-23T09:19:57;96360.41;;;10.54
27826;BMP280;15077;49.704;9.908;2024-02-23T09:22:23;96368.00;;;10.54
27826;BMP280;15077;49.704;9.908;2024-02-23T09:24:49;96362.72;;;10.57
27826;BMP280;15077;49.704;9.908;2024-02-23T09:27:14;96362.53;;;10.60
27826;BMP280;15077;49.704;9.908;2024-02-23T09:29:41;96353.91;;;10.62
27826;BMP280;15077;49.704;9.908;2024-02-23T09:32:09;96357.94;;;10.64
27826;BMP280;15077;49.704;9.908;2024-02-23T09:34:35;96357.03;;;10.65
27826;BMP280;15077;49.704;9.908;2024-02-23T09:37:00;96348.53;;;10.66
27826;BMP280;15077;49.704;9.908;2024-02-23T09:39:26;96350.13;;;10.67
27826;BMP280;15077;49.704;9.908;2024-02-23T09:41:56;96351.75;;;10.68
27826;BMP280;15077;49.704;9.908;2024-02-23T09:44:32;96352.34;;;10.72
27826;BMP280;15077;49.704;9.908;2024-02-23T09:47:01;96360.69;;;10.74
27826;BMP280;15077;49.704;9.908;2024-02-23T09:49:37;96362.19;;;10.76
27826;BMP280;15077;49.704;9.908;2024-02-23T09:52:07;96365.97;;;10.71
27826;BMP280;15077;49.704;9.908;2024-02-23T09:54:33;96372.13;;;10.67
27826;BMP280;15077;49.704;9.908;2024-02-23T09:57:01;96369.91;;;10.63
27826;BMP280;15077;49.704;9.908;2024-02-23T09:59:28;96367.59;;;10.60
27826;BMP280;15077;49.704;9.908;2024-02-23T10:01:56;96375.38;;;10.57
27826;BMP280;15077;49.704;9.908;2024-02-23T10:04:24;96377.91;;;10.57
27826;BMP280;15077;49.704;9.908;2024-02-23T10:06:50;96378.72;;;10.57
27826;BMP280;15077;49.704;9.908;2024-02-23T10:09:16;96393.72;;;10.60
27826;BMP280;15077;49.704;9.908;2024-02-23T10:11:41;96399.63;;;10.61
27826;BMP280;15077;49.704;9.908;2024-02-23T10:14:08;96406.28;;;10.62
27826;BMP280;15077;49.704;9.908;2024-02-23T10:16:33;96392.72;;;10.63
27826;BMP280;15077;49.704;9.908;2024-02-23T10:18:59;96408.59;;;10.64
27826;BMP280;15077;49.704;9.908;2024-02-23T10:21:24;96404.25;;;10.66
27826;BMP280;15077;49.704;9.908;2024-02-23T10:23:50;96397.47;;;10.67
27826;BMP280;15077;49.704;9.908;2024-02-23T10:26:17;96402.44;;;10.68
27826;BMP280;15077;49.704;9.908;2024-02-23T10:28:45;96407.41;;;10.70
27826;BMP280;15077;49.704;9.908;2024-02-23T10:31:12;96411.56;;;10.71
27826;BMP280;15077;49.704;9.908;2024-02-23T10:33:38;96405.44;;;10.73
27826;BMP280;15077;49.704;9.908;2024-02-23T10:36:05;96418.84;;;10.75
27826;BMP280;15077;49.704;9.908;2024-02-23T10:38:32;96422.97;;;10.76
27826;BMP280;15077;49.704;9.908;2024-02-23T10:40:58;96413.69;;;10.77
27826;BMP280;15077;49.704;9.908;2024-02-23T10:43:43;96413.47;;;10.80
27826;BMP280;15077;49.704;9.908;2024-02-23T10:46:11;96400.59;;;10.83
27826;BMP280;15077;49.704;9.908;2024-02-23T10:48:42;96409.28;;;10.91
27826;BMP280;15077;49.704;9.908;2024-02-23T10:51:10;96409.47;;;11.01
27826;BMP280;15077;49.704;9.908;2024-02-23T10:53:36;96411.50;;;11.08
27826;BMP280;15077;49.704;9.908;2024-02-23T10:56:03;96422.84;;;11.15
27826;BMP280;15077;49.704;9.908;2024-02-23T10:58:29;96429.09;;;11.22
27826;BMP280;15077;49.704;9.908;2024-02-23T11:01:00;96420.38;;;11.26
27826;BMP280;15077;49.704;9.908;2024-02-23T11:03:31;96408.16;;;11.31
27826;BMP280;15077;49.704;9.908;2024-02-23T11:06:01;96422.94;;;11.37
27826;BMP280;15077;49.704;9.908;2024-02-23T11:08:28;96406.72;;;11.39
27826;BMP280;15077;49.704;9.908;2024-02-23T11:10:54;96410.69;;;11.43
27826;BMP280;15077;49.704;9.908;2024-02-23T11:13:30;96401.34;;;11.44
27826;BMP280;15077;49.704;9.908;2024-02-23T11:16:04;96396.16;;;11.45
27826;BMP280;15077;49.704;9.908;2024-02-23T11:18:30;96397.78;;;11.46
27826;BMP280;15077;49.704;9.908;2024-02-23T11:21:02;96400.03;;;11.51
27826;BMP280;15077;49.704;9.908;2024-02-23T11:23:49;96392.09;;;11.55
27826;BMP280;15077;49.704;9.908;2024-02-23T11:26:18;96380.81;;;11.59
27826;BMP280;15077;49.704;9.908;2024-02-23T11:28:50;96389.69;;;11.64
27826;BMP280;15077;49.704;9.908;2024-02-23T11:31:23;96385.13;;;11.69
27826;BMP280;15077;49.704;9.908;2024-02-23T11:36:35;96382.94;;;11.76
27826;BMP280;15077;49.704;9.908;2024-02-23T11:39:02;96376.13;;;11.76
27826;BMP280;15077;49.704;9.908;2024-02-23T11:41:28;96389.53;;;11.78
27826;BMP280;15077;49.704;9.908;2024-02-23T11:43:56;96383.41;;;11.81
27826;BMP280;15077;49.704;9.908;2024-02-23T11:46:24;96377.31;;;11.83
27826;BMP280;15077;49.704;9.908;2024-02-23T11:48:50;96375.25;;;11.88
27826;BMP280;15077;49.704;9.908;2024-02-23T11:51:22;96363.28;;;11.90
27826;BMP280;15077;49.704;9.908;2024-02-23T11:53:49;96368.34;;;11.90
27826;BMP280;15077;49.704;9.908;2024-02-23T11:56:15;96356.34;;;11.92
27826;BMP280;15077;49.704;9.908;2024-02-23T11:58:41;96353.69;;;11.94
27826;BMP280;15077;49.704;9.908;2024-02-23T12:01:07;96356.81;;;11.97
27826;BMP280;15077;49.704;9.908;2024-02-23T12:03:33;96354.09;;;12.00
27826;BMP280;15077;49.704;9.908;2024-02-23T12:06:03;96353.84;;;12.03
27826;BMP280;15077;49.704;9.908;2024-02-23T12:08:32;96347.16;;;12.02
27826;BMP280;15077;49.704;9.908;2024-02-23T12:11:04;96353.03;;;12.03
27826;BMP280;15077;49.704;9.908;2024-02-23T12:13:30;96352.00;;;12.05
27826;BMP280;15077;49.704;9.908;2024-02-23T12:15:57;96352.91;;;12.04
27826;BMP280;15077;49.704;9.908;2024-02-23T12:18:23;96342.88;;;12.03
27826;BMP280;15077;49.704;9.908;2024-02-23T12:20:52;96352.22;;;12.02
27826;BMP280;15077;49.704;9.908;2024-02-23T12:23:18;96351.44;;;12.02
27826;BMP280;15077;49.704;9.908;2024-02-23T12:25:54;96348.19;;;12.00
27826;BMP280;15077;49.704;9.908;2024-02-23T12:28:20;96353.25;;;12.00
27826;BMP280;15077;49.704;9.908;2024-02-23T12:30:46;96349.00;;;12.00
27826;BMP280;15077;49.704;9.908;2024-02-23T12:33:15;96354.09;;;12.00
27826;BMP280;15077;49.704;9.908;2024-02-23T12:35:41;96359.16;;;12.00
27826;BMP280;15077;49.704;9.908;2024-02-23T12:38:07;96356.81;;;11.97
27826;BMP280;15077;49.704;9.908;2024-02-23T12:40:32;96344.22;;;11.96
27826;BMP280;15077;49.704;9.908;2024-02-23T12:42:58;96351.84;;;11.96
27826;BMP280;15077;49.704;9.908;2024-02-23T12:45:24;96351.72;;;11.97
27826;BMP280;15077;49.704;9.908;2024-02-23T12:47:49;96349.00;;;12.00
27826;BMP280;15077;49.704;9.908;2024-02-23T12:50:15;96348.78;;;12.03
27826;BMP280;15077;49.704;9.908;2024-02-23T12:52:40;96352.81;;;12.06
27826;BMP280;15077;49.704;9.908;2024-02-23T12:55:07;96357.78;;;12.07
27826;BMP280;15077;49.704;9.908;2024-02-23T12:57:33;96348.34;;;12.09
27826;BMP280;15077;49.704;9.908;2024-02-23T12:59:59;96343.81;;;12.12
27826;BMP280;15077;49.704;9.908;2024-02-23T13:02:24;96338.75;;;12.12
27826;BMP280;15077;49.704;9.908;2024-02-23T13:04:50;96347.78;;;12.16
27826;BMP280;15077;49.704;9.908;2024-02-23T13:07:16;96344.88;;;12.21
27826;BMP280;15077;49.704;9.908;2024-02-23T13:09:42;96349.03;;;12.22
27826;BMP280;15077;49.704;9.908;2024-02-23T13:12:08;96352.50;;;12.21
27826;BMP280;15077;49.704;9.908;2024-02-23T13:14:33;96343.16;;;12.21
27826;BMP280;15077;49.704;9.908;2024-02-23T13:16:59;96347.44;;;12.21
27826;BMP280;15077;49.704;9.908;2024-02-23T13:19:25;96346.47;;;12.22
27826;BMP280;15077;49.704;9.908;2024-02-23T13:21:50;96341.28;;;12.23
27826;BMP280;15077;49.704;9.908;2024-02-23T13:24:16;96338.53;;;12.26
27826;BMP280;15077;49.704;9.908;2024-02-23T13:26:42;96329.09;;;12.28
27826;BMP280;15077;49.704;9.908;2024-02-23T13:29:07;96336.59;;;12.30
27826;BMP280;15077;49.704;9.908;2024-02-23T13:31:33;96348.34;;;12.31
27826;BMP280;15077;49.704;9.908;2024-02-23T13:33:58;96336.34;;;12.33
27826;BMP280;15077;49.704;9.908;2024-02-23T13:36:24;96348.81;;;12.36
27826;BMP280;15077;49.704;9.908;2024-02-23T13:38:50;96335.28;;;12.35
27826;BMP280;15077;49.704;9.908;2024-02-23T13:41:19;96336.13;;;12.36
27826;BMP280;15077;49.704;9.908;2024-02-23T13:43:45;96339.34;;;12.38
27826;BMP280;15077;49.704;9.908;2024-02-23T13:46:11;96339.25;;;12.39
27826;BMP280;15077;49.704;9.908;2024-02-23T13:48:36;96334.03;;;12.41
27826;BMP280;15077;49.704;9.908;2024-02-23T13:51:02;96340.75;;;12.42
27826;BMP280;15077;49.704;9.908;2024-02-23T13:53:30;96339.13;;;12.41
27826;BMP280;15077;49.704;9.908;2024-02-23T13:55:56;96336.59;;;12.41
27826;BMP280;15077;49.704;9.908;2024-02-23T13:58:22;96340.75;;;12.42
27826;BMP280;15077;49.704;9.908;2024-02-23T14:00:48;96341.66;;;12.41
27826;BMP280;15077;49.704;9.908;2024-02-23T14:03:16;96341.44;;;12.44
27826;BMP280;15077;49.704;9.908;2024-02-23T14:05:46;96330.59;;;12.42
27826;BMP280;15077;49.704;9.908;2024-02-23T14:08:12;96324.78;;;12.40